Time;durP1;ratioP1;P1;durP2;ratioP2;P2;SDS_P1;SDS_P2;PMS_P1;PMS_P2;Temp;Humidity;BMP_temperature;BMP_pressure;BME280_temperature;BME280_humidity;BME280_pressure;Samples;Min_cycle;Max_cycle;Signal;HPM_P1;HPM_P2
2023/04/07 00:09:33;;;;;;;6.18;3.97;;;;;;;;;;12814916;19;20854;-66
2023/04/07 00:14:31;;;;;;;6.38;4.90;;;;;;;;;;12820395;19;20310;-67
2023/04/07 00:25:39;;;;;;;6.03;4.50;;;;;;;;;;12713452;19;2004740;-67
2023/04/07 00:30:26;;;;;;;8.13;4.63;;;;;;;;;;12816528;19;20318;-67
2023/04/07 00:34:56;;;;;;;7.07;4.65;;;;;;;;;;12816772;19;20124;-67
2023/04/07 00:45:36;;;;;;;7.03;4.73;;;;;;;;;;12812791;19;20336;-66
2023/04/07 00:50:55;;;;;;;9.13;5.35;;;;;;;;;;12819332;19;20753;-67
2023/04/07 00:55:47;;;;;;;7.80;5.07;;;;;;;;;;12817344;19;20325;-66
2023/04/07 01:06:06;;;;;;;8.25;5.43;;;;;;;;;;12817947;19;20121;-67
2023/04/07 01:11:04;;;;;;;7.28;4.85;;;;;;;;;;12817217;19;20426;-67
2023/04/07 01:16:50;;;;;;;6.88;4.60;;;;;;;;;;12819541;19;20414;-67
2023/04/07 01:22:37;;;;;;;5.85;4.55;;;;;;;;;;12711706;19;2005188;-67
2023/04/07 01:27:42;;;;;;;7.35;4.38;;;;;;;;;;12811827;19;20302;-67
2023/04/07 01:32:51;;;;;;;6.28;4.82;;;;;;;;;;12821461;19;20375;-67
2023/04/07 01:37:49;;;;;;;8.32;4.50;;;;;;;;;;12816847;19;20364;-67
2023/04/07 01:42:30;;;;;;;7.18;4.80;;;;;;;;;;12816579;19;20383;-66
2023/04/07 01:46:54;;;;;;;7.00;4.72;;;;;;;;;;12820387;19;20418;-67
2023/04/07 01:51:51;;;;;;;6.63;4.53;;;;;;;;;;12819800;19;20485;-67
2023/04/07 01:56:49;;;;;;;10.40;5.00;;;;;;;;;;12810578;19;20311;-67
2023/04/07 02:01:09;;;;;;;7.30;4.57;;;;;;;;;;12813944;19;20469;-67
2023/04/07 02:12:30;;;;;;;6.07;4.28;;;;;;;;;;12718146;19;2005058;-66
2023/04/07 02:17:28;;;;;;;6.80;4.20;;;;;;;;;;12820777;19;20675;-67
2023/04/07 02:22:46;;;;;;;7.45;4.93;;;;;;;;;;12822271;19;20361;-67
2023/04/07 02:27:52;;;;;;;8.90;5.57;;;;;;;;;;12820646;19;20421;-67
2023/04/07 02:32:59;;;;;;;6.45;4.68;;;;;;;;;;12821197;19;20014;-66
2023/04/07 02:38:36;;;;;;;6.95;4.30;;;;;;;;;;12822268;19;20422;-68
2023/04/07 02:43:37;;;;;;;7.88;4.40;;;;;;;;;;12820090;19;20358;-67
2023/04/07 02:48:32;;;;;;;7.75;4.70;;;;;;;;;;12820134;19;20551;-67
2023/04/07 02:59:48;;;;;;;6.75;4.30;;;;;;;;;;12716611;19;2005037;-67
2023/04/07 03:04:38;;;;;;;6.85;4.93;;;;;;;;;;12819697;19;20711;-67
2023/04/07 03:15:30;;;;;;;7.18;5.20;;;;;;;;;;12815814;19;20015;-66
2023/04/07 03:20:10;;;;;;;8.48;5.53;;;;;;;;;;12818387;19;20325;-67
2023/04/07 03:30:47;;;;;;;10.40;6.38;;;;;;;;;;12825436;19;20017;-66
2023/04/07 03:36:05;;;;;;;10.25;7.68;;;;;;;;;;12816664;19;20444;-66
2023/04/07 03:41:46;;;;;;;10.05;6.28;;;;;;;;;;12827789;19;20310;-66
2023/04/07 03:46:06;;;;;;;7.53;5.13;;;;;;;;;;12820084;19;20510;-67
2023/04/07 03:51:20;;;;;;;10.32;5.75;;;;;;;;;;12825433;19;20476;-67
2023/04/07 04:02:55;;;;;;;7.35;5.20;;;;;;;;;;12724665;19;2005423;-67
2023/04/07 04:07:41;;;;;;;8.85;5.57;;;;;;;;;;12821018;19;20842;-67
2023/04/07 04:16:56;;;;;;;;;;;;;;;;;;12826070;19;20306;-67
2023/04/07 04:21:34;;;;;;;10.25;5.28;;;;;;;;;;12824125;19;20787;-66
2023/04/07 04:26:28;;;;;;;7.75;4.47;;;;;;;;;;12818816;19;20307;-67
2023/04/07 04:31:01;;;;;;;7.45;5.15;;;;;;;;;;12824516;19;20524;-67
2023/04/07 04:36:08;;;;;;;10.48;5.68;;;;;;;;;;12824638;19;20082;-66
2023/04/07 04:41:01;;;;;;;9.35;5.32;;;;;;;;;;12820492;19;20461;-67
2023/04/07 04:45:47;;;;;;;8.00;4.97;;;;;;;;;;12822880;19;20422;-67
2023/04/07 04:51:06;;;;;;;6.93;4.75;;;;;;;;;;12822180;19;20348;-67
2023/04/07 04:56:28;;;;;;;5.35;3.78;;;;;;;;;;12817961;19;20580;-67
2023/04/07 05:01:29;;;;;;;7.38;5.05;;;;;;;;;;12819417;19;20006;-66
2023/04/07 05:12:27;;;;;;;12.95;6.40;;;;;;;;;;12812994;19;20319;-66
2023/04/07 05:16:48;;;;;;;10.52;6.40;;;;;;;;;;12811130;19;20472;-67
2023/04/07 05:21:28;;;;;;;6.65;4.70;;;;;;;;;;12820667;19;20348;-66
2023/04/07 05:26:41;;;;;;;10.95;6.65;;;;;;;;;;12820202;19;20457;-66
2023/04/07 05:31:40;;;;;;;10.45;6.47;;;;;;;;;;12816161;19;20343;-66
2023/04/07 05:36:30;;;;;;;7.47;4.93;;;;;;;;;;12816545;19;20445;-66
2023/04/07 05:47:26;;;;;;;10.02;6.45;;;;;;;;;;12709194;19;2004709;-67
2023/04/07 05:52:42;;;;;;;9.00;5.30;;;;;;;;;;12808955;19;20874;-66
2023/04/07 05:57:06;;;;;;;14.23;7.90;;;;;;;;;;12810991;19;20588;-66
2023/04/07 06:01:42;;;;;;;9.50;5.30;;;;;;;;;;12812954;19;20341;-66
2023/04/07 06:06:41;;;;;;;8.60;5.57;;;;;;;;;;12812184;19;20304;-66
2023/04/07 06:11:26;;;;;;;6.05;4.05;;;;;;;;;;12809777;19;20416;-67
2023/04/07 06:21:42;;;;;;;15.82;7.60;;;;;;;;;;12807540;19;20451;-66
2023/04/07 06:26:27;;;;;;;7.57;4.70;;;;;;;;;;12808132;19;20558;-66
2023/04/07 06:30:52;;;;;;;6.18;4.13;;;;;;;;;;12818475;19;20434;-66
2023/04/07 06:35:31;;;;;;;7.60;4.85;;;;;;;;;;12819184;19;20426;-65
2023/04/07 06:41:15;;;;;;;7.13;4.38;;;;;;;;;;12807061;19;20319;-65
2023/04/07 06:45:50;;;;;;;6.28;4.72;;;;;;;;;;12815236;19;20365;-65
2023/04/07 06:50:26;;;;;;;6.40;4.72;;;;;;;;;;12828172;19;20070;-66
2023/04/07 06:54:52;;;;;;;8.60;4.78;;;;;;;;;;12829413;19;20658;-65
2023/04/07 07:04:05;;;;;;;7.90;4.97;;;;;;;;;;12827485;19;20371;-65
2023/04/07 07:14:50;;;;;;;34.53;13.73;;;;;;;;;;12827065;19;20628;-65
2023/04/07 07:19:28;;;;;;;29.98;13.70;;;;;;;;;;12825035;19;20436;-65
2023/04/07 07:24:28;;;;;;;7.60;4.40;;;;;;;;;;12825734;19;20471;-65
2023/04/07 07:34:28;;;;;;;10.18;5.47;;;;;;;;;;12826816;19;20662;-65
2023/04/07 07:38:55;;;;;;;8.48;4.90;;;;;;;;;;12826378;19;20434;-65
2023/04/07 07:44:01;;;;;;;26.83;17.25;;;;;;;;;;12828148;19;20330;-64
2023/04/07 07:49:29;;;;;;;10.55;7.00;;;;;;;;;;12824132;19;20329;-63
2023/04/07 07:54:40;;;;;;;14.00;5.50;;;;;;;;;;12823758;19;20441;-66
2023/04/07 08:11:02;;;;;;;20.75;9.27;;;;;;;;;;12823988;19;20367;-67
2023/04/07 08:22:34;;;;;;;13.10;7.80;;;;;;;;;;12822261;19;20387;-66
2023/04/07 08:27:42;;;;;;;16.83;9.10;;;;;;;;;;12816100;19;20426;-66
2023/04/07 08:32:35;;;;;;;12.00;7.07;;;;;;;;;;12815787;19;20042;-65
2023/04/07 08:43:43;;;;;;;13.10;7.72;;;;;;;;;;12813288;19;20564;-66
2023/04/07 08:48:49;;;;;;;11.15;6.70;;;;;;;;;;12812682;19;20178;-67
2023/04/07 08:59:53;;;;;;;12.27;7.50;;;;;;;;;;12813184;19;20406;-66
2023/04/07 09:04:43;;;;;;;10.82;6.40;;;;;;;;;;12814121;19;20042;-67
2023/04/07 09:09:29;;;;;;;13.35;7.20;;;;;;;;;;12812985;19;20388;-65
2023/04/07 09:14:52;;;;;;;13.00;7.85;;;;;;;;;;12815418;19;20445;-67
2023/04/07 09:19:29;;;;;;;13.52;7.78;;;;;;;;;;12812713;19;20335;-66
2023/04/07 09:24:31;;;;;;;10.40;6.40;;;;;;;;;;12812307;19;20293;-65
2023/04/07 09:29:27;;;;;;;13.75;8.30;;;;;;;;;;12812726;19;20409;-65
2023/04/07 09:34:43;;;;;;;18.85;10.88;;;;;;;;;;12817718;19;20413;-66
2023/04/07 09:39:45;;;;;;;16.17;10.35;;;;;;;;;;12820189;19;20434;-66
2023/04/07 09:44:26;;;;;;;11.45;6.72;;;;;;;;;;12815074;19;20130;-66
2023/04/07 09:50:05;;;;;;;12.15;7.00;;;;;;;;;;12820718;19;20342;-67
2023/04/07 09:55:07;;;;;;;15.30;9.15;;;;;;;;;;12716106;19;2004772;-66
2023/04/07 10:00:27;;;;;;;12.43;7.50;;;;;;;;;;12811299;19;20046;-66
2023/04/07 10:11:28;;;;;;;12.80;6.78;;;;;;;;;;12710931;19;2004991;-66
2023/04/07 10:16:03;;;;;;;10.45;6.50;;;;;;;;;;12808838;19;20450;-67
2023/04/07 10:27:21;;;;;;;12.40;7.57;;;;;;;;;;12722038;19;2004884;-68
2023/04/07 10:32:29;;;;;;;64.35;57.70;;;;;;;;;;12818469;19;20457;-67
2023/04/07 10:37:27;;;;;;;11.55;6.15;;;;;;;;;;12836853;19;20298;-67
2023/04/07 10:42:36;;;;;;;12.60;7.22;;;;;;;;;;12814425;19;20011;-66
2023/04/07 10:47:27;;;;;;;7.82;5.28;;;;;;;;;;12817495;19;20074;-68
2023/04/07 10:52:15;;;;;;;9.30;5.55;;;;;;;;;;12820703;19;20633;-67
2023/04/07 11:03:16;;;;;;;9.63;5.53;;;;;;;;;;12827407;19;20079;-67
2023/04/07 11:13:32;;;;;;;10.15;6.10;;;;;;;;;;12820025;19;20820;-68
2023/04/07 11:18:29;;;;;;;9.90;5.43;;;;;;;;;;12819982;19;20437;-67
2023/04/07 11:23:17;;;;;;;8.25;5.72;;;;;;;;;;12821990;19;20003;-67
2023/04/07 11:27:51;;;;;;;9.40;5.70;;;;;;;;;;12828596;19;20464;-68
2023/04/07 11:32:50;;;;;;;9.05;5.50;;;;;;;;;;12822718;19;20376;-67
2023/04/07 11:37:56;;;;;;;9.13;5.03;;;;;;;;;;12819282;19;20311;-67
2023/04/07 11:42:41;;;;;;;7.97;5.10;;;;;;;;;;12826289;19;20334;-68
2023/04/07 11:47:51;;;;;;;8.35;4.63;;;;;;;;;;12826786;19;20531;-68
2023/04/07 11:53:03;;;;;;;9.52;4.93;;;;;;;;;;12822947;19;20314;-68
2023/04/07 11:58:25;;;;;;;10.18;5.63;;;;;;;;;;12825639;19;20373;-67
2023/04/07 12:09:28;;;;;;;7.82;5.50;;;;;;;;;;12821866;19;20452;-67
2023/04/07 12:14:04;;;;;;;7.72;5.05;;;;;;;;;;12824285;19;20436;-68
2023/04/07 12:19:39;;;;;;;8.43;5.28;;;;;;;;;;12826006;19;20425;-69
2023/04/07 12:24:41;;;;;;;7.35;4.95;;;;;;;;;;12819110;19;20363;-68
2023/04/07 12:29:28;;;;;;;11.95;8.63;;;;;;;;;;12825342;19;20483;-68
2023/04/07 12:40:26;;;;;;;9.85;7.13;;;;;;;;;;12716112;19;2005016;-68
2023/04/07 12:50:06;;;;;;;10.27;5.88;;;;;;;;;;12819733;19;20309;-67
2023/04/07 12:56:01;;;;;;;8.40;5.75;;;;;;;;;;12824288;19;20029;-67
2023/04/07 13:01:04;;;;;;;7.57;4.53;;;;;;;;;;12818444;19;20316;-68
2023/04/07 13:05:41;;;;;;;7.22;4.50;;;;;;;;;;12822277;19;20091;-67
2023/04/07 13:10:26;;;;;;;10.15;6.32;;;;;;;;;;12821758;19;20298;-67
2023/04/07 13:15:51;;;;;;;11.20;6.00;;;;;;;;;;12821518;19;20370;-68
2023/04/07 13:26:37;;;;;;;9.20;5.78;;;;;;;;;;12817168;19;20428;-67
2023/04/07 13:37:29;;;;;;;;;;;;;;;;;;12714945;19;2004837;-67
2023/04/07 13:42:35;;;;;;;13.35;7.03;;;;;;;;;;12816564;19;20253;-67
2023/04/07 13:47:08;;;;;;;8.25;5.07;;;;;;;;;;12817730;19;20500;-67
2023/04/07 13:51:44;;;;;;;13.85;8.10;;;;;;;;;;12820576;19;20371;-67
2023/04/07 14:02:29;;;;;;;11.98;7.05;;;;;;;;;;12841622;19;20417;-66
2023/04/07 14:07:08;;;;;;;;;;;;;;;;;;12843606;19;20294;-67
2023/04/07 14:17:51;;;;;;;9.27;6.50;;;;;;;;;;12842942;19;20440;-67
2023/04/07 14:22:58;;;;;;;9.50;6.55;;;;;;;;;;12843276;19;20371;-68
2023/04/07 14:34:08;;;;;;;9.82;4.88;;;;;;;;;;12734349;19;2005725;-68
2023/04/07 14:39:29;;;;;;;18.25;11.98;;;;;;;;;;12833926;19;20370;-67
2023/04/07 14:43:55;;;;;;;9.75;4.78;;;;;;;;;;12834567;19;20421;-67
2023/04/07 14:49:28;;;;;;;5.32;3.97;;;;;;;;;;12833617;19;20007;-67
2023/04/07 14:54:27;;;;;;;6.22;3.70;;;;;;;;;;12832309;19;20953;-67
2023/04/07 14:59:25;;;;;;;4.38;3.15;;;;;;;;;;12837345;19;20310;-67
2023/04/07 15:05:02;;;;;;;7.15;4.80;;;;;;;;;;12842068;19;20480;-67
2023/04/07 15:10:28;;;;;;;9.52;6.18;;;;;;;;;;12717552;19;2004923;-67
2023/04/07 15:15:29;;;;;;;8.00;4.82;;;;;;;;;;12819369;19;20306;-68
2023/04/07 15:19:54;;;;;;;9.27;5.65;;;;;;;;;;12823873;19;20306;-67
2023/04/07 15:30:55;;;;;;;14.52;7.82;;;;;;;;;;12825635;19;20354;-68
2023/04/07 15:35:37;;;;;;;42.40;20.00;;;;;;;;;;12824085;19;20441;-67
2023/04/07 15:40:29;;;;;;;55.95;28.13;;;;;;;;;;12820498;19;20388;-67
2023/04/07 15:46:00;;;;;;;17.38;9.52;;;;;;;;;;12816885;19;20445;-67
2023/04/07 15:51:08;;;;;;;28.55;14.05;;;;;;;;;;12817534;19;20012;-68
2023/04/07 15:55:44;;;;;;;21.75;11.88;;;;;;;;;;12818336;19;20437;-68
2023/04/07 16:00:50;;;;;;;37.00;19.60;;;;;;;;;;12818708;19;20369;-67
2023/04/07 16:05:40;;;;;;;19.27;11.88;;;;;;;;;;12817432;19;20007;-68
2023/04/07 16:10:25;;;;;;;19.35;10.23;;;;;;;;;;12815755;19;20441;-67
2023/04/07 16:14:46;;;;;;;18.50;11.25;;;;;;;;;;12819828;19;20309;-68
2023/04/07 16:26:08;;;;;;;24.25;14.55;;;;;;;;;;12714599;19;2005499;-67
2023/04/07 16:31:35;;;;;;;11.15;7.30;;;;;;;;;;12813378;19;20508;-67
2023/04/07 16:42:51;;;;;;;12.03;7.07;;;;;;;;;;12815508;19;20419;-68
2023/04/07 16:48:09;;;;;;;10.48;6.57;;;;;;;;;;12814633;19;20598;-67
2023/04/07 16:52:50;;;;;;;11.80;6.13;;;;;;;;;;12817781;19;20537;-67
2023/04/07 16:57:45;;;;;;;10.15;6.25;;;;;;;;;;12823287;19;20434;-68
2023/04/07 17:03:05;;;;;;;10.60;5.30;;;;;;;;;;12813916;19;20039;-67
2023/04/07 17:07:54;;;;;;;12.80;7.22;;;;;;;;;;12818345;19;20366;-69
2023/04/07 17:12:55;;;;;;;15.18;9.65;;;;;;;;;;12822756;19;20013;-68
2023/04/07 17:17:36;;;;;;;21.50;12.15;;;;;;;;;;12814134;19;20291;-67
2023/04/07 17:22:25;;;;;;;20.20;11.05;;;;;;;;;;12812922;19;20021;-67
2023/04/07 17:27:00;;;;;;;63.55;31.05;;;;;;;;;;12813090;19;20445;-67
2023/04/07 17:32:28;;;;;;;43.60;23.23;;;;;;;;;;12811805;19;20493;-68
2023/04/07 17:37:29;;;;;;;67.05;43.42;;;;;;;;;;12811164;19;20433;-67
2023/04/07 17:42:00;;;;;;;50.30;22.70;;;;;;;;;;12816136;19;20394;-68
2023/04/07 17:53:56;;;;;;;54.40;19.85;;;;;;;;;;12710506;19;2005057;-68
2023/04/07 17:58:36;;;;;;;56.13;15.75;;;;;;;;;;12811074;19;20302;-67
2023/04/07 18:03:28;;;;;;;16.90;7.57;;;;;;;;;;12811354;19;20015;-66
2023/04/07 18:08:45;;;;;;;49.03;20.55;;;;;;;;;;12812518;19;21011;-67
2023/04/07 18:14:06;;;;;;;35.65;17.50;;;;;;;;;;12707945;19;2005080;-66
2023/04/07 18:18:50;;;;;;;23.33;13.65;;;;;;;;;;12809330;19;20045;-66
2023/04/07 18:23:31;;;;;;;29.98;13.35;;;;;;;;;;12811002;19;20458;-67
2023/04/07 18:28:27;;;;;;;31.65;13.52;;;;;;;;;;12807727;19;20501;-65
2023/04/07 18:33:31;;;;;;;38.43;14.77;;;;;;;;;;12808413;19;20507;-67
2023/04/07 18:44:45;;;;;;;115.88;34.30;;;;;;;;;;12713189;19;2004951;-69
2023/04/07 18:49:30;;;;;;;578.47;164.57;;;;;;;;;;12821457;19;20864;-68
2023/04/07 18:54:04;;;;;;;360.85;98.68;;;;;;;;;;12829961;19;20449;-69
2023/04/07 18:58:27;;;;;;;306.58;76.95;;;;;;;;;;12832650;19;20366;-68
2023/04/07 19:02:57;;;;;;;262.25;67.53;;;;;;;;;;12828916;19;20437;-68
2023/04/07 19:07:59;;;;;;;229.18;58.92;;;;;;;;;;12828912;19;20474;-69
2023/04/07 19:13:04;;;;;;;32.65;14.52;;;;;;;;;;12824893;19;20469;-68
2023/04/07 19:18:08;;;;;;;37.75;18.58;;;;;;;;;;12826281;19;20007;-67
2023/04/07 19:22:47;;;;;;;473.70;122.63;;;;;;;;;;12828421;19;20342;-68
2023/04/07 19:33:27;;;;;;;462.85;114.68;;;;;;;;;;12824638;19;20405;-67
2023/04/07 19:37:51;;;;;;;91.38;28.05;;;;;;;;;;12828280;19;20425;-67
2023/04/07 19:48:32;;;;;;;325.27;83.57;;;;;;;;;;12816370;19;20332;-68
2023/04/07 19:53:31;;;;;;;188.05;46.80;;;;;;;;;;12815981;19;19998;-68
2023/04/07 20:04:02;;;;;;;131.38;36.00;;;;;;;;;;12715547;19;2005217;-67
2023/04/07 20:09:00;;;;;;;156.35;40.58;;;;;;;;;;12816246;19;20511;-67
2023/04/07 20:13:48;;;;;;;171.98;45.40;;;;;;;;;;12817029;19;20353;-67
2023/04/07 20:18:47;;;;;;;103.00;27.55;;;;;;;;;;12816859;19;20437;-67
2023/04/07 20:29:06;;;;;;;158.05;41.47;;;;;;;;;;12813678;19;20318;-68
2023/04/07 20:33:38;;;;;;;142.90;39.53;;;;;;;;;;12821013;19;20032;-68
2023/04/07 20:38:28;;;;;;;222.57;55.15;;;;;;;;;;12824619;19;20347;-68
2023/04/07 20:43:26;;;;;;;166.88;39.30;;;;;;;;;;12815743;19;20430;-68
2023/04/07 20:48:00;;;;;;;185.03;45.73;;;;;;;;;;12814238;19;20444;-67
2023/04/07 20:58:58;;;;;;;154.32;38.03;;;;;;;;;;12714432;19;2005002;-69
2023/04/07 21:08:45;;;;;;;256.48;62.42;;;;;;;;;;12811292;19;20018;-68
2023/04/07 21:19:08;;;;;;;68.03;18.77;;;;;;;;;;12813431;19;20405;-68
2023/04/07 21:28:54;;;;;;;39.80;17.42;;;;;;;;;;12817797;19;20298;-67
2023/04/07 21:33:56;;;;;;;44.80;15.38;;;;;;;;;;12816877;19;20452;-67
2023/04/07 21:38:24;;;;;;;50.30;19.15;;;;;;;;;;12821159;19;20456;-67
2023/04/07 21:49:33;;;;;;;99.85;37.03;;;;;;;;;;12707972;19;2005185;-68
2023/04/07 21:54:07;;;;;;;160.20;49.45;;;;;;;;;;12811000;19;20318;-67
2023/04/07 21:59:41;;;;;;;71.05;26.05;;;;;;;;;;12814464;19;20028;-67
2023/04/07 22:04:41;;;;;;;60.88;17.50;;;;;;;;;;12810316;19;20502;-68
2023/04/07 22:09:29;;;;;;;68.13;21.40;;;;;;;;;;12810133;19;20466;-68
2023/04/07 22:14:03;;;;;;;47.05;16.80;;;;;;;;;;12808633;19;20014;-67
2023/04/07 22:18:55;;;;;;;55.05;16.80;;;;;;;;;;12817509;19;20430;-68
2023/04/07 22:30:33;;;;;;;59.15;20.55;;;;;;;;;;12721000;19;2004991;-66
2023/04/07 22:35:07;;;;;;;68.75;22.65;;;;;;;;;;12818915;19;20635;-67
2023/04/07 22:39:47;;;;;;;47.50;18.38;;;;;;;;;;12825929;19;20423;-67
2023/04/07 22:44:11;;;;;;;56.45;20.08;;;;;;;;;;12827598;19;20480;-67
2023/04/07 22:49:14;;;;;;;24.67;10.63;;;;;;;;;;12814531;19;20510;-68
2023/04/07 22:54:04;;;;;;;82.18;25.27;;;;;;;;;;12807829;19;20437;-66
2023/04/07 22:59:28;;;;;;;50.45;19.30;;;;;;;;;;12806124;19;21251;-68
2023/04/07 23:04:28;;;;;;;59.22;23.20;;;;;;;;;;12820023;19;20397;-67
2023/04/07 23:09:31;;;;;;;24.00;12.20;;;;;;;;;;12822633;19;20298;-68
2023/04/07 23:14:42;;;;;;;37.58;17.02;;;;;;;;;;12821101;19;20438;-67
2023/04/07 23:20:02;;;;;;;96.68;32.45;;;;;;;;;;12820422;19;20305;-67
2023/04/07 23:25:45;;;;;;;77.03;27.80;;;;;;;;;;12821507;19;20007;-68
2023/04/07 23:30:51;;;;;;;53.25;21.10;;;;;;;;;;12816867;19;20403;-67
2023/04/07 23:35:40;;;;;;;39.83;16.52;;;;;;;;;;12818520;19;20022;-67
2023/04/07 23:40:25;;;;;;;47.30;22.02;;;;;;;;;;12822402;19;20038;-68
2023/04/07 23:51:01;;;;;;;30.05;15.93;;;;;;;;;;12727230;19;2004877;-67
2023/04/07 23:55:45;;;;;;;35.20;19.48;;;;;;;;;;12825865;19;20473;-68
